Accueil
METAR-TAF:

METAR-TAF

Aéroports :

Aéroport militaire Mario Berardi

Pratica Di Mare, Italie

latitude: 41-39N, longitude: 012-27E, altitude: 6 m

Observation

Le bulletin a été fait il y a 33 minutes, à 05:55 UTC
Vent 4 kt de nord-est
Température 2°C
Humidité 93%
Pression 1024 hPa
Visibilité 10 km ou plus
pas de nuages en-dessous de 1500 mètres et pas de cumulonimbus.

METAR: LIRE 210555Z 04004KT CAVOK 02/01 Q1024 RMK SKC VIS MIN 9999 WIND THR13 04003KT WIND THR31 05004KT BLU

Heure: 07:28 (06:28 UTC)

Prévision

Le bulletin a été fait il y a 1 heure et 28 minutes, à 05:00 UTC
Prévision valable du 21 à 06 UTC au 21 à 15 UTC
Vent 3 kt de direction variable
Visibilité 10 km ou plus
pas de nuages en-dessous de 1500 mètres et pas de cumulonimbus.
Temporairement
du 21 à 12 UTC au 21 à 15 UTC
Vent 8 kt de ouest

TAF: LIRE 210500Z 2106/2115 VRB03KT CAVOK TEMPO 2112/2115 27008KT

Observations et prévisions météorologiques de plus de 4000 aéroports (messages METAR et TAF).

Les stations disponibles sont représentées par des disques jaunes et rouges sur la carte.

Passer la souris dessus pour voir le nom de la station.

Cliquer dessus pour voir les observations et prévisions météorologiques.

Pour changer de carte: cliquez sur les boutons verts avec une croix noire pour zoomer, sur le bouton vert avec un tiret pour effectuer un zoom arrière, ou sur les flèches vertes pour les cartes adjacentes.


METAR-TAF: